Time;durP1;ratioP1;P1;durP2;ratioP2;P2;SDS_P1;SDS_P2;PMS_P1;PMS_P2;Temp;Humidity;BMP_temperature;BMP_pressure;BME280_temperature;BME280_humidity;BME280_pressure;Samples;Min_cycle;Max_cycle;Signal;HPM_P1;HPM_P2
2022/03/03 00:02:08;;;;;;;;;;;;;;;7.68;100.00;99049.22;5056524;28;19925;-78
2022/03/03 00:04:35;;;;;;;;;;;;;;;7.50;100.00;99048.53;5055342;28;20020;-78
2022/03/03 00:07:02;;;;;;;;;;;;;;;7.56;100.00;99046.91;5056099;28;20330;-77
2022/03/03 00:09:29;;;;;;;;;;;;;;;7.81;100.00;99047.56;5056292;28;20426;-78
2022/03/03 00:11:56;;;;;;;;;;;;;;;7.15;100.00;99039.09;5056162;28;20291;-78
2022/03/03 00:14:24;;;;;;;;;;;;;;;7.62;100.00;99040.50;5059478;28;20248;-77
2022/03/03 00:16:51;;;;;;;;;;;;;;;7.40;100.00;99036.25;5049718;28;19925;-77
2022/03/03 00:19:18;;;;;;;;;;;;;;;7.66;100.00;99030.19;5074836;28;20295;-77
2022/03/03 00:21:46;;;;;;;;;;;;;;;7.40;100.00;99036.25;5074765;28;19925;-78
2022/03/03 00:24:13;;;;;;;;;;;;;;;7.53;100.00;99034.59;5072040;28;20606;-77
2022/03/03 00:26:40;;;;;;;;;;;;;;;7.57;100.00;99026.25;5054776;28;19955;-78
2022/03/03 00:29:08;;;;;;;;;;;;;;;7.09;100.00;99031.56;5054681;28;19924;-78
2022/03/03 00:31:36;;;;;;;;;;;;;;;7.47;100.00;99025.09;5055204;28;20446;-78
2022/03/03 00:34:03;;;;;;;;;;;;;;;7.19;100.00;99028.75;5075630;28;20387;-77
2022/03/03 00:36:30;;;;;;;;;;;;;;;7.77;100.00;99021.78;5075721;28;20415;-78
2022/03/03 00:38:58;;;;;;;;;;;;;;;8.03;100.00;99024.78;5075705;28;19924;-78
2022/03/03 00:41:25;;;;;;;;;;;;;;;8.04;100.00;99012.44;5075798;28;19924;-78
2022/03/03 00:43:52;;;;;;;;;;;;;;;8.04;100.00;99012.44;5074356;28;20341;-77
2022/03/03 00:46:19;;;;;;;;;;;;;;;7.33;100.00;99022.34;5075688;28;19924;-78
2022/03/03 00:48:46;;;;;;;;;;;;;;;7.70;100.00;99016.22;5057703;28;19956;-78
2022/03/03 00:51:13;;;;;;;;;;;;;;;7.86;100.00;99020.09;5075513;28;20383;-78
2022/03/03 00:53:40;;;;;;;;;;;;;;;7.35;100.00;99014.41;5075510;28;19931;-78
2022/03/03 00:56:07;;;;;;;;;;;;;;;7.54;100.00;99002.81;5075474;28;19985;-78
2022/03/03 00:58:34;;;;;;;;;;;;;;;6.76;100.00;99009.81;5075365;28;19924;-78
2022/03/03 01:01:02;;;;;;;;;;;;;;;7.27;100.00;99004.50;5057543;28;20019;-78
2022/03/03 01:03:29;;;;;;;;;;;;;;;7.72;100.00;99006.31;5075101;28;20361;-78
2022/03/03 01:05:56;;;;;;;;;;;;;;;7.55;100.00;99007.19;5075300;28;19924;-78
2022/03/03 01:08:23;;;;;;;;;;;;;;;7.50;100.00;98992.91;5075251;28;20399;-78
2022/03/03 01:10:50;;;;;;;;;;;;;;;7.16;100.00;98992.66;5074020;28;19929;-78
2022/03/03 01:13:18;;;;;;;;;;;;;;;6.83;100.00;98995.94;5074899;28;20368;-78
2022/03/03 01:15:45;;;;;;;;;;;;;;;7.14;100.00;98992.25;5057375;28;19950;-78
2022/03/03 01:18:12;;;;;;;;;;;;;;;7.17;100.00;98991.47;5074863;28;20023;-78
2022/03/03 01:20:39;;;;;;;;;;;;;;;7.33;100.00;98986.22;5075073;28;19939;-77
2022/03/03 01:23:06;;;;;;;;;;;;;;;7.19;100.00;98997.41;5075066;28;19924;-77
2022/03/03 01:25:33;;;;;;;;;;;;;;;7.67;100.00;98987.25;5060583;28;20532;-78
2022/03/03 01:28:03;;;;;;;;;;;;;;;7.31;100.00;98980.28;5054908;28;20168;-78
2022/03/03 01:30:30;;;;;;;;;;;;;;;7.37;100.00;98978.69;5054779;28;19925;-78
2022/03/03 01:32:57;;;;;;;;;;;;;;;7.12;100.00;98984.31;5066188;28;19928;-78
2022/03/03 01:35:24;;;;;;;;;;;;;;;7.57;100.00;98981.75;5074777;28;19924;-78
2022/03/03 01:37:52;;;;;;;;;;;;;;;7.00;100.00;98975.63;5090425;28;19931;-77
2022/03/03 01:41:14;;;;;;;;;;;;;;;7.52;100.00;98963.50;5110662;27;20314;-78
2022/03/03 01:43:41;;;;;;;;;;;;;;;7.43;100.00;98963.16;5127090;27;19924;-78
2022/03/03 01:46:08;;;;;;;;;;;;;;;7.06;100.00;98962.91;5110677;28;19930;-78
2022/03/03 01:48:36;;;;;;;;;;;;;;;7.16;100.00;98956.53;5126748;28;19959;-78
2022/03/03 01:51:03;;;;;;;;;;;;;;;7.06;100.00;98951.81;5111405;28;19927;-78
2022/03/03 01:53:30;;;;;;;;;;;;;;;7.25;100.00;98946.56;5111418;28;20375;-78
2022/03/03 01:55:58;;;;;;;;;;;;;;;6.81;100.00;98956.66;5111480;28;19946;-78
2022/03/03 01:58:25;;;;;;;;;;;;;;;6.98;100.00;98942.69;5093086;28;20489;-78
2022/03/03 02:00:52;;;;;;;;;;;;;;;6.98;100.00;98953.03;5075985;28;19924;-78
2022/03/03 02:03:20;;;;;;;;;;;;;;;7.42;100.00;98944.91;5111310;28;19928;-78
2022/03/03 02:05:48;;;;;;;;;;;;;;;7.03;100.00;98941.50;5111223;28;19978;-78
2022/03/03 02:08:15;;;;;;;;;;;;;;;7.71;100.00;98953.88;5111160;28;19963;-77
2022/03/03 02:10:42;;;;;;;;;;;;;;;7.49;100.00;98939.28;5111080;28;19924;-77
2022/03/03 02:13:09;;;;;;;;;;;;;;;7.77;100.00;98933.53;5076012;28;19924;-77
2022/03/03 02:15:37;;;;;;;;;;;;;;;7.69;100.00;98934.81;5110837;28;20015;-77
2022/03/03 02:18:04;;;;;;;;;;;;;;;7.57;100.00;98938.06;5092799;28;19924;-78
2022/03/03 02:20:31;;;;;;;;;;;;;;;6.92;100.00;98940.75;5075981;28;20355;-78
2022/03/03 02:22:58;;;;;;;;;;;;;;;7.67;100.00;98942.75;5110841;28;20283;-78
2022/03/03 02:25:26;;;;;;;;;;;;;;;8.02;100.00;98925.81;5092695;28;19931;-78
2022/03/03 02:27:53;;;;;;;;;;;;;;;7.80;100.00;98927.16;5110544;28;19931;-78
2022/03/03 02:30:23;;;;;;;;;;;;;;;8.15;100.00;98924.09;5092403;28;20084;-78
2022/03/03 02:32:50;;;;;;;;;;;;;;;7.90;100.00;98923.53;5092330;28;19924;-78
2022/03/03 02:35:17;;;;;;;;;;;;;;;8.20;100.00;98925.66;5110701;28;19962;-78
2022/03/03 02:37:45;;;;;;;;;;;;;;;8.05;100.00;98919.44;5109940;28;19924;-78
2022/03/03 02:40:19;;;;;;;;;;;;;;;7.91;100.00;98907.59;5110231;28;19924;-77
2022/03/03 02:42:49;;;;;;;;;;;;;;;7.97;100.00;98906.78;5092281;28;20420;-78
2022/03/03 02:45:16;;;;;;;;;;;;;;;8.14;100.00;98905.03;5075097;28;19928;-78
2022/03/03 02:47:45;;;;;;;;;;;;;;;7.93;100.00;98910.78;5108918;28;19924;-78
2022/03/03 02:50:13;;;;;;;;;;;;;;;8.22;100.00;98910.19;5092265;28;19924;-78
2022/03/03 02:52:42;;;;;;;;;;;;;;;8.05;100.00;98902.75;5096261;28;19924;-78
2022/03/03 02:55:09;;;;;;;;;;;;;;;8.24;100.00;98885.50;5078638;28;19924;-78
2022/03/03 02:57:55;;;;;;;;;;;;;;;8.29;100.00;98896.19;5078595;28;19928;-78
2022/03/03 03:00:27;;;;;;;;;;;;;;;8.41;100.00;98897.66;5078411;28;19960;-78
2022/03/03 03:02:55;;;;;;;;;;;;;;;8.35;100.00;98902.09;5062091;28;19924;-78
2022/03/03 03:05:22;;;;;;;;;;;;;;;8.43;100.00;98898.84;5078578;28;20018;-78
2022/03/03 03:07:49;;;;;;;;;;;;;;;8.49;100.00;98894.41;5096675;28;19928;-78
2022/03/03 03:10:17;;;;;;;;;;;;;;;8.47;100.00;98885.66;5096452;28;19935;-78
2022/03/03 03:12:44;;;;;;;;;;;;;;;8.52;100.00;98892.78;5096506;28;20010;-78
2022/03/03 03:15:11;;;;;;;;;;;;;;;8.21;100.00;98877.16;5078266;28;19931;-78
2022/03/03 03:17:41;;;;;;;;;;;;;;;7.98;100.00;98885.31;5081658;28;19963;-78
2022/03/03 03:20:08;;;;;;;;;;;;;;;8.18;100.00;98889.88;5058171;28;19925;-78
2022/03/03 03:22:36;;;;;;;;;;;;;;;8.14;100.00;98883.56;5041564;28;19925;-78
2022/03/03 03:25:05;;;;;;;;;;;;;;;8.31;100.00;98888.22;5058294;28;19928;-79
2022/03/03 03:27:32;;;;;;;;;;;;;;;8.24;100.00;98888.28;5057990;28;19950;-78
2022/03/03 03:29:59;;;;;;;;;;;;;;;8.43;100.00;98879.34;5084142;28;19969;-78
2022/03/03 03:32:27;;;;;;;;;;;;;;;8.54;100.00;98874.44;5067670;28;20100;-79
2022/03/03 03:34:55;;;;;;;;;;;;;;;8.51;100.00;98872.47;5054940;28;20027;-79
2022/03/03 03:37:22;;;;;;;;;;;;;;;8.51;100.00;98875.25;5084926;28;19924;-79
2022/03/03 03:39:49;;;;;;;;;;;;;;;8.35;100.00;98868.69;5070948;28;19982;-79
2022/03/03 03:42:17;;;;;;;;;;;;;;;8.34;100.00;98870.69;5075085;28;19924;-78
2022/03/03 03:44:44;;;;;;;;;;;;;;;7.90;100.00;98864.31;5061290;28;19955;-79
2022/03/03 03:47:12;;;;;;;;;;;;;;;8.04;100.00;98862.19;5088617;28;19924;-79
2022/03/03 03:50:48;;;;;;;;;;;;;;;8.40;100.00;98852.34;5091297;28;19959;-79
2022/03/03 03:53:16;;;;;;;;;;;;;;;8.12;100.00;98863.72;5101960;28;19924;-78
2022/03/03 03:55:43;;;;;;;;;;;;;;;7.96;100.00;98857.91;5083581;28;20259;-78
2022/03/03 03:58:10;;;;;;;;;;;;;;;7.90;100.00;98869.88;5090973;28;19929;-78
2022/03/03 04:00:37;;;;;;;;;;;;;;;8.11;100.00;98856.56;5107050;28;19946;-78
2022/03/03 04:03:04;;;;;;;;;;;;;;;7.87;100.00;98857.59;5089881;28;19924;-79
2022/03/03 04:05:31;;;;;;;;;;;;;;;7.83;100.00;98848.47;5089961;28;19983;-78
2022/03/03 04:07:59;;;;;;;;;;;;;;;8.18;100.00;98850.91;5090984;28;19925;-79
2022/03/03 04:10:28;;;;;;;;;;;;;;;8.04;100.00;98851.06;5089749;28;19928;-78
2022/03/03 04:12:58;;;;;;;;;;;;;;;8.35;100.00;98850.00;5057016;28;19989;-78
2022/03/03 04:15:25;;;;;;;;;;;;;;;7.49;100.00;98853.13;5089646;28;20018;-78
2022/03/03 04:17:52;;;;;;;;;;;;;;;7.01;100.00;98843.91;5090825;28;19924;-78
2022/03/03 04:20:22;;;;;;;;;;;;;;;7.49;100.00;98846.75;5089459;28;20026;-78
2022/03/03 04:22:49;;;;;;;;;;;;;;;7.61;100.00;98855.41;5089541;28;19925;-78
2022/03/03 04:25:17;;;;;;;;;;;;;;;7.91;100.00;98860.31;5090107;28;19963;-78
2022/03/03 04:27:44;;;;;;;;;;;;;;;7.55;100.00;98857.03;5088638;28;19924;-78
2022/03/03 04:30:12;;;;;;;;;;;;;;;7.48;100.00;98850.75;5089258;28;20027;-78
2022/03/03 04:32:39;;;;;;;;;;;;;;;7.58;100.00;98859.00;5099351;28;19930;-78
2022/03/03 04:35:08;;;;;;;;;;;;;;;7.68;100.00;98852.56;5110152;28;19998;-78
2022/03/03 04:37:36;;;;;;;;;;;;;;;7.38;100.00;98851.63;5109211;28;20298;-78
2022/03/03 04:40:04;;;;;;;;;;;;;;;7.43;100.00;98849.19;5110950;28;19931;-78
2022/03/03 04:42:31;;;;;;;;;;;;;;;7.77;100.00;98858.44;5092358;28;19924;-78
2022/03/03 04:44:58;;;;;;;;;;;;;;;8.08;100.00;98845.47;5109558;28;19924;-78
2022/03/03 04:47:26;;;;;;;;;;;;;;;8.12;100.00;98847.00;5107233;28;19931;-78
2022/03/03 04:49:53;;;;;;;;;;;;;;;8.12;100.00;98843.47;5106306;27;19924;-78
2022/03/03 04:52:20;;;;;;;;;;;;;;;8.15;100.00;98835.06;5089098;28;19936;-78
2022/03/03 04:54:49;;;;;;;;;;;;;;;8.35;100.00;98843.63;5090198;28;19948;-78
2022/03/03 04:57:17;;;;;;;;;;;;;;;8.19;100.00;98837.81;5090027;28;19944;-78
2022/03/03 04:59:44;;;;;;;;;;;;;;;8.40;100.00;98832.84;5090239;28;19931;-78
2022/03/03 05:02:11;;;;;;;;;;;;;;;8.53;100.00;98839.44;5076374;28;19924;-78
2022/03/03 05:04:38;;;;;;;;;;;;;;;8.58;100.00;98830.66;5076844;28;19925;-78
2022/03/03 05:07:05;;;;;;;;;;;;;;;8.57;100.00;98831.84;5075197;28;19931;-78
2022/03/03 05:09:32;;;;;;;;;;;;;;;8.65;100.00;98830.56;5108537;28;19924;-78
2022/03/03 05:12:00;;;;;;;;;;;;;;;8.69;100.00;98822.94;5075223;28;20282;-78
2022/03/03 05:14:27;;;;;;;;;;;;;;;8.63;100.00;98821.81;5075329;28;20378;-76
2022/03/03 05:16:54;;;;;;;;;;;;;;;8.62;100.00;98820.25;5058741;28;20070;-76
2022/03/03 05:19:21;;;;;;;;;;;;;;;8.35;100.00;98822.16;5076349;28;19924;-75
2022/03/03 05:21:48;;;;;;;;;;;;;;;8.55;100.00;98825.09;5076507;28;19982;-76
2022/03/03 05:24:15;;;;;;;;;;;;;;;8.69;100.00;98820.16;5076206;28;19924;-76
2022/03/03 05:26:43;;;;;;;;;;;;;;;8.77;100.00;98823.63;5074925;28;19969;-76
2022/03/03 05:29:10;;;;;;;;;;;;;;;8.82;100.00;98820.38;5074771;28;19929;-76
2022/03/03 05:31:37;;;;;;;;;;;;;;;8.73;100.00;98818.13;5075826;28;19982;-76
2022/03/03 05:34:04;;;;;;;;;;;;;;;8.35;100.00;98813.81;5078316;28;19925;-75
2022/03/03 05:36:34;;;;;;;;;;;;;;;8.41;100.00;98814.94;5079327;28;19967;-75
2022/03/03 05:39:02;;;;;;;;;;;;;;;8.30;100.00;98811.47;5076029;28;19928;-76
2022/03/03 05:41:29;;;;;;;;;;;;;;;8.51;100.00;98818.81;5093240;28;19928;-75
2022/03/03 05:43:57;;;;;;;;;;;;;;;8.66;100.00;98823.75;5095006;28;19975;-76
2022/03/03 05:46:25;;;;;;;;;;;;;;;8.54;100.00;98809.63;5094879;28;19924;-76
2022/03/03 05:48:52;;;;;;;;;;;;;;;8.68;100.00;98817.78;5095829;28;19925;-76
2022/03/03 05:51:19;;;;;;;;;;;;;;;8.76;100.00;98820.06;5094864;28;19925;-75
2022/03/03 05:53:47;;;;;;;;;;;;;;;8.78;100.00;98812.06;5077153;28;19924;-76
2022/03/03 05:56:16;;;;;;;;;;;;;;;8.77;100.00;98810.50;5057978;28;20069;-75
2022/03/03 05:58:48;;;;;;;;;;;;;;;8.15;100.00;98807.22;5074418;28;19962;-75
2022/03/03 06:01:15;;;;;;;;;;;;;;;7.75;100.00;98810.00;5057852;28;19925;-76
2022/03/03 06:03:45;;;;;;;;;;;;;;;7.92;100.00;98820.97;5075576;28;19931;-75
2022/03/03 06:06:15;;;;;;;;;;;;;;;8.30;100.00;98817.03;5075379;28;19928;-75
2022/03/03 06:09:02;;;;;;;;;;;;;;;8.14;100.00;98818.78;5073878;28;19924;-75
2022/03/03 06:11:29;;;;;;;;;;;;;;;8.33;100.00;98826.56;5074061;28;20389;-76
2022/03/03 06:14:03;;;;;;;;;;;;;;;7.84;100.00;98813.91;5074402;28;19932;-76
2022/03/03 06:16:31;;;;;;;;;;;;;;;7.46;100.00;98801.13;5073953;28;20300;-75
2022/03/03 06:18:59;;;;;;;;;;;;;;;7.75;100.00;98805.25;5073947;28;20441;-76
2022/03/03 06:21:26;;;;;;;;;;;;;;;8.16;100.00;98808.81;5072586;28;19974;-76
2022/03/03 06:23:53;;;;;;;;;;;;;;;8.41;100.00;98814.94;5076643;28;19925;-76
2022/03/03 06:26:20;;;;;;;;;;;;;;;8.42;100.00;98822.06;5075057;28;19928;-76
2022/03/03 06:28:48;;;;;;;;;;;;;;;8.00;100.00;98808.56;5087635;28;19963;-76
2022/03/03 06:31:16;;;;;;;;;;;;;;;7.92;100.00;98803.50;5094002;28;19924;-76
2022/03/03 06:33:43;;;;;;;;;;;;;;;7.90;100.00;98809.47;5095168;28;19924;-77
2022/03/03 06:36:11;;;;;;;;;;;;;;;8.08;100.00;98818.44;5095089;28;19959;-77
2022/03/03 06:38:38;;;;;;;;;;;;;;;7.92;100.00;98818.19;5094967;28;20280;-76
2022/03/03 06:41:05;;;;;;;;;;;;;;;7.89;100.00;98821.78;5093620;28;20317;-77
2022/03/03 06:43:33;;;;;;;;;;;;;;;7.95;100.00;98820.13;5093652;28;19924;-77
2022/03/03 06:46:00;;;;;;;;;;;;;;;8.25;100.00;98823.06;5078749;28;19951;-77
2022/03/03 06:48:29;;;;;;;;;;;;;;;8.28;100.00;98825.03;5068947;28;19925;-76
2022/03/03 06:50:57;;;;;;;;;;;;;;;8.01;100.00;98812.91;5069687;28;20356;-76
2022/03/03 06:53:28;;;;;;;;;;;;;;;7.56;100.00;98819.69;5070360;28;19925;-76
2022/03/03 06:56:02;;;;;;;;;;;;;;;7.38;100.00;98823.81;5071769;28;19924;-73
2022/03/03 06:58:30;;;;;;;;;;;;;;;7.16;100.00;98834.28;5067476;28;19936;-77
2022/03/03 07:01:00;;;;;;;;;;;;;;;7.26;100.00;98827.84;5065303;28;20383;-76
2022/03/03 07:03:29;;;;;;;;;;;;;;;7.32;100.00;98835.38;5060917;28;20327;-77
2022/03/03 07:05:57;;;;;;;;;;;;;;;7.50;100.00;98837.22;5070401;28;19929;-77
2022/03/03 07:08:24;;;;;;;;;;;;;;;7.49;100.00;98836.44;5065731;28;19929;-78
2022/03/03 07:10:51;;;;;;;;;;;;;;;7.90;100.00;98828.94;5060840;28;20426;-76
2022/03/03 07:13:18;;;;;;;;;;;;;;;7.71;100.00;98823.16;5070548;28;19948;-77
2022/03/03 07:15:47;;;;;;;;;;;;;;;7.81;100.00;98813.94;5071093;28;19925;-77
2022/03/03 07:18:16;;;;;;;;;;;;;;;7.47;100.00;98819.38;5068648;28;19928;-77
2022/03/03 07:20:48;;;;;;;;;;;;;;;7.55;100.00;98823.69;5071002;28;19930;-77
2022/03/03 07:23:27;;;;;;;;;;;;;;;7.76;100.00;98823.50;5057926;28;19924;-77
2022/03/03 07:25:57;;;;;;;;;;;;;;;7.70;100.00;98824.34;5082085;28;19932;-77
2022/03/03 07:28:27;;;;;;;;;;;;;;;8.01;100.00;98824.06;5067506;28;20015;-77
2022/03/03 07:30:54;;;;;;;;;;;;;;;7.60;100.00;98825.22;5052916;28;19978;-77
2022/03/03 07:33:40;;;;;;;;;;;;;;;7.64;100.00;98820.41;5078631;28;19935;-77
2022/03/03 07:36:09;;;;;;;;;;;;;;;7.75;100.00;98830.28;5072689;28;20298;-77
2022/03/03 07:38:38;;;;;;;;;;;;;;;7.85;100.00;98820.22;5066705;28;20356;-77
2022/03/03 07:41:07;;;;;;;;;;;;;;;7.68;100.00;98833.09;5072090;28;19928;-77
2022/03/03 07:43:34;;;;;;;;;;;;;;;7.79;100.00;98839.38;5072903;28;20360;-78
2022/03/03 07:46:02;;;;;;;;;;;;;;;7.70;100.00;98827.91;5081527;28;19928;-77
2022/03/03 07:48:38;;;;;;;;;;;;;;;7.79;100.00;98833.81;5092619;28;19923;-78
2022/03/03 07:51:05;;;;;;;;;;;;;;;8.13;100.00;98831.91;5092234;28;19924;-75
2022/03/03 07:53:33;;;;;;;;;;;;;;;8.01;100.00;98835.19;5092694;28;19970;-75
2022/03/03 07:56:04;;;;;;;;;;;;;;;8.05;100.00;98829.59;5093513;28;19959;-75
2022/03/03 07:58:39;;;;;;;;;;;;;;;8.27;100.00;98829.00;5093177;28;19930;-76
2022/03/03 08:01:08;;;;;;;;;;;;;;;7.98;100.00;98826.88;5075796;28;19924;-76
2022/03/03 08:03:37;;;;;;;;;;;;;;;8.25;100.00;98825.84;5093495;28;19935;-76
2022/03/03 08:06:04;;;;;;;;;;;;;;;8.35;100.00;98830.50;5093553;28;19924;-76
2022/03/03 08:08:31;;;;;;;;;;;;;;;8.47;100.00;98827.19;5093500;28;19997;-76
2022/03/03 08:11:03;;;;;;;;;;;;;;;8.80;100.00;98825.59;5093612;28;20359;-78
2022/03/03 08:13:30;;;;;;;;;;;;;;;8.92;100.00;98825.81;5072374;28;20376;-78
2022/03/03 08:15:57;;;;;;;;;;;;;;;8.88;100.00;98827.88;5072043;28;19924;-78
2022/03/03 08:18:26;;;;;;;;;;;;;;;8.89;100.00;98835.03;5072695;28;19925;-76
2022/03/03 08:20:54;;;;;;;;;;;;;;;9.05;100.00;98835.22;5071864;28;19933;-77
2022/03/03 08:23:25;;;;;;;;;;;;;;;8.74;100.00;98832.81;5064571;28;20402;-77
2022/03/03 08:25:53;;;;;;;;;;;;;;;8.44;100.00;98847.50;5076866;28;19924;-77
2022/03/03 08:28:23;;;;;;;;;;;;;;;8.47;100.00;98851.44;5066617;28;19952;-77
2022/03/03 08:30:58;;;;;;;;;;;;;;;8.53;100.00;98847.00;5104640;28;19933;-77
2022/03/03 08:33:33;;;;;;;;;;;;;;;9.03;100.00;98845.19;5073247;28;19925;-77
2022/03/03 08:36:01;;;;;;;;;;;;;;;9.10;100.00;98845.88;5075463;28;19931;-77
2022/03/03 08:38:36;;;;;;;;;;;;;;;9.16;100.00;98838.63;5078481;28;19969;-77
2022/03/03 08:41:04;;;;;;;;;;;;;;;8.98;100.00;98838.09;5082785;28;19938;-77
2022/03/03 08:43:32;;;;;;;;;;;;;;;8.86;100.00;98830.28;5087875;28;19924;-77
2022/03/03 08:46:03;;;;;;;;;;;;;;;8.79;100.00;98835.97;5076717;28;19924;-77
2022/03/03 08:48:32;;;;;;;;;;;;;;;8.83;100.00;98833.91;5090290;28;20310;-78
2022/03/03 08:51:00;;;;;;;;;;;;;;;8.76;100.00;98825.66;5078917;28;19924;-77
2022/03/03 08:53:27;;;;;;;;;;;;;;;8.84;100.00;98835.50;5096910;28;20027;-77
2022/03/03 08:55:54;;;;;;;;;;;;;;;8.79;100.00;98846.28;5096799;28;20001;-77
2022/03/03 08:58:21;;;;;;;;;;;;;;;8.98;100.00;98842.88;5093826;28;19928;-77
2022/03/03 09:00:50;;;;;;;;;;;;;;;8.95;100.00;98833.34;5071004;28;19925;-77
2022/03/03 09:03:22;;;;;;;;;;;;;;;8.92;100.00;98839.75;5105846;27;20419;-77
2022/03/03 09:05:50;;;;;;;;;;;;;;;9.34;100.00;98849.53;5094374;28;19959;-77
2022/03/03 09:08:17;;;;;;;;;;;;;;;9.43;100.00;98840.66;5089283;28;19924;-77
2022/03/03 09:10:44;;;;;;;;;;;;;;;9.71;100.00;98848.59;5075316;28;20395;-77
2022/03/03 09:13:12;;;;;;;;;;;;;;;9.54;100.00;98847.66;5076288;28;19928;-77
2022/03/03 09:15:39;;;;;;;;;;;;;;;9.30;100.00;98853.59;5075042;28;19931;-77
2022/03/03 09:18:06;;;;;;;;;;;;;;;9.57;100.00;98846.03;5074762;28;19924;-77
2022/03/03 09:20:33;;;;;;;;;;;;;;;9.47;100.00;98836.59;5076045;28;19931;-77
2022/03/03 09:23:00;;;;;;;;;;;;;;;9.28;100.00;98844.84;5075007;28;19928;-77
2022/03/03 09:25:28;;;;;;;;;;;;;;;9.46;100.00;98848.16;5058200;28;19924;-77
2022/03/03 09:27:55;;;;;;;;;;;;;;;9.69;100.00;98837.84;5076056;28;19925;-77
2022/03/03 09:30:22;;;;;;;;;;;;;;;9.44;100.00;98842.22;5074588;28;19932;-77
2022/03/03 09:32:49;;;;;;;;;;;;;;;9.41;100.00;98843.84;5075793;28;19924;-77
2022/03/03 09:35:17;;;;;;;;;;;;;;;9.31;100.00;98844.81;5106494;27;20070;-76
2022/03/03 09:37:45;;;;;;;;;;;;;;;9.41;100.00;98851.41;5078325;28;19925;-76
2022/03/03 09:40:12;;;;;;;;;;;;;;;9.29;100.00;98847.22;5107682;28;19934;-76
2022/03/03 09:42:39;;;;;;;;;;;;;;;9.21;100.00;98856.13;5086720;28;20019;-76
2022/03/03 09:45:08;;;;;;;;;;;;;;;9.19;100.00;98854.53;5073936;28;19929;-77
2022/03/03 09:47:37;;;;;;;;;;;;;;;9.47;100.00;98853.31;5074938;28;20382;-77
2022/03/03 09:50:07;;;;;;;;;;;;;;;9.40;100.00;98856.22;5073588;28;19946;-77
2022/03/03 09:52:35;;;;;;;;;;;;;;;9.48;100.00;98851.34;5073908;28;19968;-76
2022/03/03 09:55:02;;;;;;;;;;;;;;;9.44;100.00;98851.38;5075307;28;19928;-76
2022/03/03 09:57:29;;;;;;;;;;;;;;;9.32;100.00;98857.53;5074253;28;19932;-76
2022/03/03 09:59:57;;;;;;;;;;;;;;;9.10;100.00;98861.84;5073896;28;19924;-76
2022/03/03 10:02:24;;;;;;;;;;;;;;;9.29;100.00;98854.78;5073562;28;19925;-76
2022/03/03 10:04:54;;;;;;;;;;;;;;;9.66;100.00;98860.22;5057450;28;19931;-76
2022/03/03 10:07:23;;;;;;;;;;;;;;;9.84;100.00;98860.72;5075306;28;19967;-76
2022/03/03 10:10:10;;;;;;;;;;;;;;;9.93;100.00;98852.59;5073357;28;19931;-76
2022/03/03 10:12:43;;;;;;;;;;;;;;;9.86;100.00;98847.91;5064917;28;19932;-76
2022/03/03 10:15:14;;;;;;;;;;;;;;;9.77;100.00;98847.66;5053653;28;19971;-76
2022/03/03 10:17:42;;;;;;;;;;;;;;;9.70;100.00;98860.94;5058873;28;19928;-76
2022/03/03 10:20:10;;;;;;;;;;;;;;;9.37;100.00;98853.50;5073754;28;19924;-76
2022/03/03 10:22:47;;;;;;;;;;;;;;;9.34;100.00;98854.31;5073728;28;20416;-76
2022/03/03 10:25:26;;;;;;;;;;;;;;;9.45;100.00;98852.19;5073572;28;20023;-76
2022/03/03 10:27:53;;;;;;;;;;;;;;;9.40;100.00;98852.66;5057299;28;19924;-76
2022/03/03 10:30:21;;;;;;;;;;;;;;;9.31;100.00;98855.97;5073130;28;20379;-76
2022/03/03 10:32:48;;;;;;;;;;;;;;;9.31;100.00;98849.59;5089856;28;20376;-76
2022/03/03 10:35:19;;;;;;;;;;;;;;;9.46;100.00;98848.97;5092905;28;20432;-76
2022/03/03 10:37:47;;;;;;;;;;;;;;;9.35;100.00;98844.75;5086652;28;19929;-76
2022/03/03 10:40:15;;;;;;;;;;;;;;;9.43;100.00;98857.38;5074662;28;19924;-76
2022/03/03 10:42:44;;;;;;;;;;;;;;;9.97;100.00;98859.69;5072819;28;19965;-76
2022/03/03 10:45:15;;;;;;;;;;;;;;;10.05;100.00;98861.16;5073076;28;19925;-76
2022/03/03 10:47:44;;;;;;;;;;;;;;;9.67;100.00;98847.84;5073006;28;19929;-76
2022/03/03 10:50:11;;;;;;;;;;;;;;;9.95;100.00;98859.31;5074167;28;19977;-76
2022/03/03 10:52:40;;;;;;;;;;;;;;;10.37;100.00;98860.63;5056694;28;19932;-76
2022/03/03 10:55:12;;;;;;;;;;;;;;;10.46;100.00;98858.06;5055813;28;19932;-76
2022/03/03 10:57:40;;;;;;;;;;;;;;;10.55;100.00;98858.28;5054211;28;19925;-76
2022/03/03 11:00:09;;;;;;;;;;;;;;;10.64;100.00;98867.69;5045497;28;20262;-76
2022/03/03 11:02:37;;;;;;;;;;;;;;;10.50;100.00;98862.38;5058923;28;19924;-76
2022/03/03 11:05:10;;;;;;;;;;;;;;;10.00;100.00;98863.63;5072231;28;20302;-76
2022/03/03 11:07:39;;;;;;;;;;;;;;;9.78;100.00;98874.38;5052988;28;19929;-75
2022/03/03 11:10:08;;;;;;;;;;;;;;;10.20;100.00;98872.91;5080983;28;20016;-76
2022/03/03 11:12:35;;;;;;;;;;;;;;;10.10;100.00;98868.28;5091494;28;19989;-76
2022/03/03 11:15:03;;;;;;;;;;;;;;;10.47;100.00;98865.22;5090771;28;20098;-76
2022/03/03 11:17:30;;;;;;;;;;;;;;;10.61;100.00;98870.53;5092248;28;19925;-76
2022/03/03 11:19:59;;;;;;;;;;;;;;;10.49;100.00;98868.38;5092176;28;19924;-76
2022/03/03 11:22:27;;;;;;;;;;;;;;;10.70;100.00;98867.97;5074198;28;19924;-76
2022/03/03 11:24:57;;;;;;;;;;;;;;;10.79;100.00;98868.19;5092207;28;19931;-76
2022/03/03 11:27:35;;;;;;;;;;;;;;;10.85;100.00;98869.28;5092256;28;20014;-76
2022/03/03 11:30:14;;;;;;;;;;;;;;;10.77;100.00;98863.03;5075793;28;19939;-76
2022/03/03 11:32:41;;;;;;;;;;;;;;;10.69;100.00;98872.00;5092190;28;20375;-76
2022/03/03 11:35:10;;;;;;;;;;;;;;;10.82;100.00;98865.34;5092076;28;20380;-76
2022/03/03 11:37:38;;;;;;;;;;;;;;;10.90;100.00;98868.78;5093310;28;19934;-76
2022/03/03 11:40:05;;;;;;;;;;;;;;;10.98;100.00;98853.41;5093296;28;19924;-76
2022/03/03 11:42:39;;;;;;;;;;;;;;;10.88;100.00;98868.41;5092862;28;19923;-76
2022/03/03 11:45:09;;;;;;;;;;;;;;;10.65;100.00;98865.66;5091423;28;20298;-76
2022/03/03 11:47:38;;;;;;;;;;;;;;;10.48;100.00;98862.00;5092143;28;19935;-76
2022/03/03 11:50:14;;;;;;;;;;;;;;;10.61;100.00;98864.97;5092974;28;20446;-76
2022/03/03 11:52:41;;;;;;;;;;;;;;;10.88;100.00;98862.81;5075566;28;19924;-76
2022/03/03 11:55:29;;;;;;;;;;;;;;;10.97;100.00;98851.84;5092134;28;20011;-76
2022/03/03 11:58:00;;;;;;;;;;;;;;;11.09;100.00;98856.78;5091878;28;19924;-76
2022/03/03 12:00:27;;;;;;;;;;;;;;;10.99;100.00;98857.81;5093124;28;19924;-76
2022/03/03 12:02:56;;;;;;;;;;;;;;;11.06;100.00;98856.88;5074908;28;19928;-76
2022/03/03 12:05:26;;;;;;;;;;;;;;;10.64;100.00;98858.50;5091795;28;19971;-76
2022/03/03 12:08:01;;;;;;;;;;;;;;;10.45;100.00;98857.28;5092983;28;19951;-76
2022/03/03 12:10:29;;;;;;;;;;;;;;;10.71;100.00;98853.56;5092072;28;19924;-76
2022/03/03 12:13:15;;;;;;;;;;;;;;;10.89;100.00;98864.38;5096834;28;19925;-76
2022/03/03 12:16:02;;;;;;;;;;;;;;;10.69;100.00;98860.81;5097182;28;20009;-76
2022/03/03 12:18:35;;;;;;;;;;;;;;;10.52;100.00;98864.72;5095701;28;19924;-76
2022/03/03 12:21:21;;;;;;;;;;;;;;;10.99;100.00;98863.41;5095828;28;19932;-76
2022/03/03 12:23:48;;;;;;;;;;;;;;;11.14;100.00;98855.50;5078864;28;19931;-76
2022/03/03 12:26:16;;;;;;;;;;;;;;;11.19;100.00;98860.56;5096547;28;20394;-76
2022/03/03 12:28:47;;;;;;;;;;;;;;;10.97;100.00;98860.22;5096767;28;20306;-76
2022/03/03 12:31:19;;;;;;;;;;;;;;;10.90;100.00;98860.41;5095627;28;20318;-76
2022/03/03 12:33:56;;;;;;;;;;;;;;;11.03;100.00;98869.69;5096635;28;19969;-76
2022/03/03 12:36:24;;;;;;;;;;;;;;;10.63;100.00;98862.53;5096630;28;19930;-76
2022/03/03 12:38:55;;;;;;;;;;;;;;;10.31;100.00;98853.97;5096424;28;19924;-76
2022/03/03 12:41:29;;;;;;;;;;;;;;;10.34;100.00;98856.69;5095304;28;19950;-76
2022/03/03 12:44:10;;;;;;;;;;;;;;;10.22;100.00;98854.50;5096526;28;19930;-76
2022/03/03 12:46:38;;;;;;;;;;;;;;;10.38;100.00;98856.63;5096413;28;19924;-76
2022/03/03 12:49:06;;;;;;;;;;;;;;;10.46;100.00;98863.66;5094839;28;19973;-76
2022/03/03 12:51:33;;;;;;;;;;;;;;;10.74;100.00;98860.31;5096399;28;20325;-76
2022/03/03 12:54:04;;;;;;;;;;;;;;;10.63;100.00;98863.31;5096070;28;19930;-76
2022/03/03 12:56:32;;;;;;;;;;;;;;;10.61;100.00;98860.16;5096191;28;19924;-76